createdAt,value
2019-03-13T00:00:57.315Z,95.70
2019-03-13T00:06:41.357Z,95.00
2019-03-13T00:09:30.098Z,94.70
2019-03-13T00:12:18.707Z,94.00
2019-03-13T00:21:29.536Z,89.40
2019-03-13T00:24:07.985Z,88.70
2019-03-13T00:26:56.727Z,87.40
2019-03-13T00:35:49.996Z,84.80
2019-03-13T00:38:50.488Z,83.60
2019-03-13T00:41:21.193Z,84.20
2019-03-13T00:44:02.143Z,83.40
2019-03-13T00:46:43.409Z,84.00
2019-03-13T00:49:24.937Z,82.80
2019-03-13T00:52:06.449Z,82.60
2019-03-13T00:54:47.391Z,80.40
2019-03-13T00:57:28.359Z,81.30
2019-03-13T01:00:09.981Z,81.30
2019-03-13T01:02:50.908Z,81.50
2019-03-13T01:05:53.235Z,81.50
2019-03-13T01:08:22.489Z,81.40
2019-03-13T01:11:03.686Z,80.40
2019-03-13T01:13:44.474Z,79.00
2019-03-13T01:16:25.970Z,79.10
2019-03-13T01:19:07.519Z,79.30
2019-03-13T01:21:48.822Z,78.90
2019-03-13T01:24:29.494Z,78.40
2019-03-13T01:27:10.410Z,78.20
2019-03-13T01:29:50.163Z,79.20
2019-03-13T01:32:57.617Z,79.50
2019-03-13T01:35:50.278Z,80.10
2019-03-13T01:38:38.820Z,79.20
2019-03-13T01:41:39.401Z,78.10
2019-03-13T01:44:11.025Z,77.90
2019-03-13T01:46:52.250Z,77.70
2019-03-13T01:49:33.835Z,77.30
2019-03-13T01:52:15.288Z,76.80
2019-03-13T01:54:56.934Z,75.30
2019-03-13T01:57:38.442Z,75.60
2019-03-13T02:00:18.416Z,74.70
2019-03-13T02:03:07.552Z,74.80
2019-03-13T02:05:56.235Z,74.40
2019-03-13T02:08:44.900Z,73.00
2019-03-13T02:11:33.559Z,72.30
2019-03-13T02:17:31.679Z,71.90
2019-03-13T02:20:20.519Z,70.80
2019-03-13T02:23:23.149Z,70.60
2019-03-13T02:25:59.444Z,70.40
2019-03-13T02:28:48.220Z,68.40
2019-03-13T02:31:36.784Z,68.40
2019-03-13T02:37:19.862Z,67.50
2019-03-13T02:43:16.057Z,65.30
2019-03-13T02:45:57.569Z,64.30
2019-03-13T02:48:39.290Z,63.70
2019-03-13T02:51:20.482Z,63.10
2019-03-13T02:54:02.072Z,64.10
2019-03-13T02:56:43.427Z,63.70
2019-03-13T02:59:24.619Z,63.30
2019-03-13T03:02:30.889Z,62.20
2019-03-13T03:05:12.542Z,61.50
2019-03-13T03:07:53.988Z,61.50
2019-03-13T03:10:35.376Z,60.40
2019-03-13T03:13:16.619Z,60.30
2019-03-13T03:15:57.976Z,58.30
2019-03-13T03:18:39.753Z,60.30
2019-03-13T03:21:21.016Z,59.00
2019-03-13T03:24:02.515Z,60.30
2019-03-13T03:26:44.152Z,59.20
2019-03-13T03:29:25.839Z,58.90
2019-03-13T03:32:07.534Z,57.60
2019-03-13T03:34:48.539Z,57.80
2019-03-13T03:37:29.340Z,57.70
2019-03-13T03:40:10.872Z,58.50
2019-03-13T03:42:52.122Z,57.70
2019-03-13T03:45:33.622Z,57.50
2019-03-13T03:48:14.770Z,58.10
2019-03-13T03:50:56.522Z,57.30
2019-03-13T03:53:37.561Z,56.70
2019-03-13T03:56:18.968Z,56.70
2019-03-13T03:58:58.717Z,56.30
2019-03-13T04:04:57.064Z,55.60
2019-03-13T04:07:44.779Z,55.90
2019-03-13T04:10:23.892Z,56.10
2019-03-13T04:13:26.833Z,55.20
2019-03-13T04:18:58.312Z,52.70
2019-03-13T04:21:47.044Z,52.10
2019-03-13T04:27:45.057Z,52.20
2019-03-13T04:30:33.671Z,52.20
2019-03-13T04:33:22.328Z,52.50
2019-03-13T04:36:11.178Z,54.10
2019-03-13T04:39:00.315Z,53.30
2019-03-13T04:44:51.312Z,52.30
2019-03-13T04:47:32.744Z,52.40
2019-03-13T04:50:13.688Z,52.00
2019-03-13T04:52:54.945Z,52.50
2019-03-13T04:55:35.958Z,50.90
2019-03-13T04:58:15.650Z,48.70
2019-03-13T05:01:04.564Z,48.60
2019-03-13T05:04:07.242Z,48.20
2019-03-13T05:06:43.756Z,48.80
2019-03-13T05:09:51.341Z,47.90
2019-03-13T05:12:40.044Z,48.30
2019-03-13T05:18:38.078Z,46.70
2019-03-13T05:21:40.926Z,47.00
2019-03-13T05:27:12.756Z,46.30
2019-03-13T05:30:01.717Z,46.90
2019-03-13T05:36:00.609Z,46.20
2019-03-13T05:44:50.078Z,47.00
2019-03-13T05:47:31.621Z,46.30
2019-03-13T05:50:12.737Z,47.00
2019-03-13T05:52:54.195Z,45.80
2019-03-13T05:55:35.588Z,46.10
2019-03-13T05:58:17.097Z,44.50
2019-03-13T06:00:58.230Z,45.70
2019-03-13T06:03:39.907Z,44.90
2019-03-13T06:06:21.251Z,43.90
2019-03-13T06:09:02.936Z,44.40
2019-03-13T06:11:44.238Z,44.00
2019-03-13T06:14:25.830Z,42.90
2019-03-13T06:17:07.274Z,43.40
2019-03-13T06:19:48.556Z,43.60
2019-03-13T06:22:28.488Z,43.20
2019-03-13T06:25:17.564Z,42.00
2019-03-13T06:28:06.118Z,42.70
2019-03-13T06:30:54.788Z,43.50
2019-03-13T06:39:48.162Z,42.50
2019-03-13T06:42:36.873Z,42.90
2019-03-13T06:45:17.981Z,41.80
2019-03-13T06:47:59.171Z,40.40
2019-03-13T06:50:40.638Z,39.30
2019-03-13T06:53:22.220Z,38.80
2019-03-13T06:56:03.009Z,37.60
2019-03-13T07:05:09.604Z,37.70
2019-03-13T07:08:09.201Z,37.60
2019-03-13T07:11:15.999Z,37.10
2019-03-13T07:14:19.537Z,37.00
2019-03-13T07:17:27.597Z,38.40
2019-03-13T07:20:15.962Z,36.20
2019-03-13T07:23:12.662Z,36.40
2019-03-13T07:29:21.057Z,36.00
2019-03-13T07:32:28.836Z,36.20
2019-03-13T07:35:36.341Z,38.00
2019-03-13T07:38:43.896Z,37.60
2019-03-13T07:41:51.399Z,37.80
2019-03-13T07:45:05.942Z,38.90
2019-03-13T07:47:55.816Z,39.00
2019-03-13T07:51:11.142Z,40.40
2019-03-13T07:54:00.633Z,40.90
2019-03-13T07:57:01.118Z,39.40
2019-03-13T08:00:01.489Z,39.00
2019-03-13T08:03:08.059Z,40.20
2019-03-13T08:06:08.326Z,40.90
2019-03-13T08:09:14.812Z,41.40
2019-03-13T08:12:26.027Z,40.70
2019-03-13T08:15:15.730Z,41.00
2019-03-13T08:18:15.974Z,39.70
2019-03-13T08:21:16.218Z,40.60
2019-03-13T08:24:19.322Z,40.90
2019-03-13T08:27:18.888Z,42.10
2019-03-13T08:30:20.418Z,41.80
2019-03-13T08:36:31.579Z,39.90
2019-03-13T08:39:23.208Z,40.20
2019-03-13T08:42:23.588Z,40.90
2019-03-13T08:45:24.221Z,40.50
2019-03-13T08:48:26.075Z,40.50
2019-03-13T08:51:20.022Z,40.40
2019-03-13T08:54:25.740Z,39.70
2019-03-13T08:57:15.231Z,39.20
2019-03-13T09:00:13.506Z,39.40
2019-03-13T09:03:18.973Z,39.90
2019-03-13T09:06:10.309Z,39.00
2019-03-13T09:09:27.154Z,40.30
2019-03-13T09:12:27.128Z,42.00
2019-03-13T09:15:16.434Z,42.40
2019-03-13T09:18:16.809Z,42.60
2019-03-13T09:24:24.908Z,44.10
2019-03-13T09:27:32.400Z,44.50
2019-03-13T09:30:39.960Z,42.70
2019-03-13T09:37:00.097Z,41.40
2019-03-13T09:39:54.597Z,41.30
2019-03-13T09:42:57.972Z,40.50
2019-03-13T09:48:57.440Z,39.30
2019-03-13T09:51:57.081Z,39.30
2019-03-13T09:58:26.748Z,37.90
2019-03-13T10:01:24.090Z,36.00
2019-03-13T10:04:31.605Z,37.80
2019-03-13T10:07:39.045Z,35.40
2019-03-13T10:10:46.797Z,36.80
2019-03-13T10:13:54.344Z,35.70
2019-03-13T10:17:10.796Z,36.20
2019-03-13T10:20:11.088Z,37.60
2019-03-13T10:23:33.325Z,37.80
2019-03-13T10:26:28.251Z,37.90
2019-03-13T10:29:35.815Z,37.50
2019-03-13T10:32:43.823Z,36.90
2019-03-13T10:35:51.768Z,36.00
2019-03-13T10:38:51.900Z,37.60
2019-03-13T10:42:03.288Z,35.00
2019-03-13T10:44:53.161Z,36.00
2019-03-13T10:47:40.568Z,36.20
2019-03-13T10:50:43.138Z,35.10
2019-03-13T10:53:42.724Z,34.70
2019-03-13T10:56:42.468Z,36.00
2019-03-13T10:59:28.345Z,37.00
2019-03-13T11:02:36.155Z,41.40
2019-03-13T11:05:43.648Z,43.00
2019-03-13T11:08:51.181Z,43.50
2019-03-13T11:11:44.968Z,49.60
2019-03-13T11:14:52.670Z,53.50
2019-03-13T11:18:00.424Z,53.10
2019-03-13T11:21:07.942Z,52.20
2019-03-13T11:24:15.402Z,56.40
2019-03-13T11:27:23.224Z,55.70
2019-03-13T11:33:58.953Z,52.70
2019-03-13T11:40:18.531Z,56.60
2019-03-13T11:43:18.826Z,51.80
2019-03-13T11:46:18.440Z,49.60
2019-03-13T11:49:21.701Z,49.60
2019-03-13T11:52:22.389Z,46.10
2019-03-13T11:55:22.318Z,43.00
2019-03-13T11:58:22.823Z,39.20
2019-03-13T12:04:25.823Z,36.30
2019-03-13T12:07:26.268Z,37.00
2019-03-13T12:10:25.851Z,37.20
2019-03-13T12:13:26.090Z,37.50
2019-03-13T12:16:21.358Z,38.30
2019-03-13T12:19:21.301Z,39.30
2019-03-13T12:22:33.211Z,38.00
2019-03-13T12:25:26.597Z,37.80
2019-03-13T12:28:26.827Z,39.00
2019-03-13T12:31:15.507Z,40.90
2019-03-13T12:34:15.464Z,42.90
2019-03-13T12:40:07.800Z,45.40
2019-03-13T12:43:04.988Z,45.30
2019-03-13T12:46:18.576Z,44.30
2019-03-13T12:52:10.416Z,43.50
2019-03-13T12:55:10.867Z,43.60
2019-03-13T12:58:11.018Z,45.20
2019-03-13T13:04:09.759Z,45.80
2019-03-13T13:07:09.359Z,47.60
2019-03-13T13:13:00.451Z,47.30
2019-03-13T13:16:00.778Z,46.50
2019-03-13T13:19:01.425Z,46.00
2019-03-13T13:21:42.939Z,44.10
2019-03-13T13:24:24.376Z,45.20
2019-03-13T13:27:06.066Z,44.80
2019-03-13T13:29:45.864Z,43.80
2019-03-13T13:32:34.787Z,47.10
2019-03-13T13:35:39.583Z,46.50
2019-03-13T13:38:16.147Z,44.80
2019-03-13T13:49:59.814Z,60.10
2019-03-13T13:52:47.405Z,64.30
2019-03-13T13:55:36.076Z,65.00
2019-03-13T14:04:19.079Z,70.10
2019-03-13T14:07:07.720Z,68.10
2019-03-13T14:12:55.096Z,66.50
2019-03-13T14:15:43.716Z,67.00
2019-03-13T14:18:43.927Z,66.80
2019-03-13T14:27:15.118Z,64.70
2019-03-13T14:30:03.972Z,64.60
2019-03-13T14:32:44.703Z,64.60
2019-03-13T14:35:26.147Z,64.50
2019-03-13T14:38:06.084Z,65.30
2019-03-13T14:44:03.820Z,65.90
2019-03-13T14:53:00.456Z,67.70
2019-03-13T14:58:58.860Z,69.60
2019-03-13T15:05:11.022Z,69.70
2019-03-13T15:07:47.158Z,70.10
2019-03-13T15:10:36.222Z,72.40
2019-03-13T15:16:34.052Z,72.70
2019-03-13T15:19:22.726Z,72.00
2019-03-13T15:22:11.373Z,73.00
2019-03-13T15:25:11.769Z,74.10
2019-03-13T15:33:33.882Z,79.30
2019-03-13T15:36:15.504Z,82.20
2019-03-13T15:38:57.179Z,86.30
2019-03-13T15:41:38.789Z,87.20
2019-03-13T15:44:20.033Z,88.90
2019-03-13T15:47:01.063Z,89.70
2019-03-13T15:49:42.722Z,90.70
2019-03-13T15:52:24.554Z,90.60
2019-03-13T15:55:05.394Z,90.80
2019-03-13T15:57:46.975Z,90.50
2019-03-13T16:00:27.797Z,90.80
2019-03-13T16:03:09.283Z,90.50
2019-03-13T16:05:51.083Z,90.50
2019-03-13T16:08:32.200Z,90.20
2019-03-13T16:11:13.125Z,90.20
2019-03-13T16:13:54.287Z,90.80
2019-03-13T16:16:35.522Z,90.50
2019-03-13T16:19:17.351Z,90.60
2019-03-13T16:21:58.499Z,90.30
2019-03-13T16:24:38.176Z,90.00
2019-03-13T16:27:26.803Z,88.50
2019-03-13T16:39:38.669Z,86.80
2019-03-13T16:42:27.270Z,89.00
2019-03-13T16:48:11.791Z,89.00
2019-03-13T16:51:01.092Z,88.10
2019-03-13T16:54:08.773Z,88.30
2019-03-13T16:56:57.500Z,88.90
2019-03-13T16:59:46.175Z,88.40
2019-03-13T17:02:34.811Z,88.60
2019-03-13T17:11:31.852Z,86.50
2019-03-13T17:14:20.488Z,87.50
2019-03-13T17:17:09.150Z,88.80
2019-03-13T17:19:58.089Z,90.70
2019-03-13T17:25:48.715Z,89.70
2019-03-13T17:28:29.522Z,91.50
2019-03-13T17:31:10.342Z,92.80
2019-03-13T17:33:51.840Z,92.80
2019-03-13T17:36:33.365Z,92.60
2019-03-13T17:39:14.925Z,92.60
2019-03-13T17:41:56.471Z,91.90
2019-03-13T17:44:37.307Z,91.50
2019-03-13T17:47:18.560Z,91.30
2019-03-13T17:49:59.826Z,91.30
2019-03-13T17:52:41.445Z,90.90
2019-03-13T17:55:22.929Z,90.40
2019-03-13T17:58:02.587Z,89.50
2019-03-13T18:04:01.168Z,89.20
2019-03-13T18:09:59.610Z,88.30
2019-03-13T18:13:02.261Z,90.10
2019-03-13T18:15:38.619Z,90.00
2019-03-13T18:18:27.241Z,90.00
2019-03-13T18:21:16.192Z,88.20
2019-03-13T18:24:04.806Z,87.90
2019-03-13T18:26:46.429Z,88.10
2019-03-13T18:29:27.951Z,88.00
2019-03-13T18:32:09.543Z,88.00
2019-03-13T18:34:55.652Z,88.40
2019-03-13T18:37:36.911Z,90.00
2019-03-13T18:40:18.436Z,89.60
2019-03-13T18:43:00.306Z,88.80
2019-03-13T18:45:41.428Z,88.30
2019-03-13T18:48:23.063Z,87.70
2019-03-13T18:51:04.571Z,87.30
2019-03-13T18:53:45.484Z,86.90
2019-03-13T18:56:26.817Z,86.60
2019-03-13T18:59:08.205Z,87.20
2019-03-13T19:01:50.130Z,87.30
2019-03-13T19:04:31.589Z,88.20
2019-03-13T19:07:13.037Z,87.80
2019-03-13T19:09:53.857Z,88.90
2019-03-13T19:12:35.535Z,90.00
2019-03-13T19:15:19.321Z,88.80
2019-03-13T19:18:01.044Z,88.30
2019-03-13T19:20:42.331Z,89.40
2019-03-13T19:23:23.672Z,89.80
2019-03-13T19:26:06.691Z,90.30
2019-03-13T19:28:48.101Z,89.60
2019-03-13T19:31:29.637Z,88.80
2019-03-13T19:34:11.309Z,87.70
2019-03-13T19:36:52.708Z,86.90
2019-03-13T19:39:33.837Z,85.80
2019-03-13T19:42:17.393Z,86.80
2019-03-13T19:44:58.931Z,87.30
2019-03-13T19:47:48.308Z,87.50
2019-03-13T19:50:36.958Z,87.60
2019-03-13T19:53:25.722Z,87.10
2019-03-13T19:56:15.926Z,86.60
2019-03-13T20:02:22.360Z,89.30
2019-03-13T20:11:08.884Z,90.50
2019-03-13T20:13:57.592Z,89.40
2019-03-13T20:16:46.749Z,88.40
2019-03-13T20:19:36.955Z,86.80
2019-03-13T20:22:40.140Z,86.30
2019-03-13T20:25:17.903Z,87.10
2019-03-13T20:27:59.229Z,86.00
2019-03-13T20:30:40.906Z,86.40
2019-03-13T20:33:22.270Z,85.20
2019-03-13T20:36:03.924Z,86.00
2019-03-13T20:38:47.278Z,87.50
2019-03-13T20:41:27.660Z,89.70
2019-03-13T20:44:09.035Z,90.00
2019-03-13T20:46:49.816Z,90.10
2019-03-13T20:49:31.390Z,89.00
2019-03-13T20:52:12.840Z,88.20
2019-03-13T20:54:54.205Z,88.20
2019-03-13T20:57:35.717Z,87.10
2019-03-13T21:00:17.870Z,86.00
2019-03-13T21:02:58.982Z,86.80
2019-03-13T21:05:40.429Z,89.30
2019-03-13T21:08:21.454Z,89.10
2019-03-13T21:11:02.902Z,90.80
2019-03-13T21:13:44.643Z,91.70
2019-03-13T21:16:26.066Z,92.30
2019-03-13T21:19:07.399Z,91.90
2019-03-13T21:21:48.264Z,92.40
2019-03-13T21:24:29.455Z,92.20
2019-03-13T21:27:10.863Z,93.10
2019-03-13T21:29:52.270Z,93.20
2019-03-13T21:32:33.539Z,92.50
2019-03-13T21:35:15.244Z,92.00
2019-03-13T21:37:55.111Z,90.90
2019-03-13T21:40:43.781Z,90.90
2019-03-13T21:46:41.580Z,91.50
2019-03-13T21:52:39.522Z,91.20
2019-03-13T21:55:28.813Z,91.60
2019-03-13T21:58:17.449Z,91.10
2019-03-13T22:04:46.467Z,91.10
2019-03-13T22:13:53.878Z,91.20
2019-03-13T22:19:51.862Z,93.20
2019-03-13T22:22:40.870Z,93.90
2019-03-13T22:25:29.472Z,94.10
2019-03-13T22:31:19.638Z,94.10
2019-03-13T22:33:59.536Z,94.30
2019-03-13T22:36:48.950Z,94.20
2019-03-13T22:39:37.530Z,94.00
2019-03-13T22:45:20.615Z,93.70
2019-03-13T23:00:05.945Z,91.80
2019-03-13T23:02:44.848Z,92.00
2019-03-13T23:05:45.474Z,91.20
2019-03-13T23:11:33.197Z,90.40
2019-03-13T23:17:30.865Z,87.50
2019-03-13T23:20:19.711Z,90.00
2019-03-13T23:23:08.594Z,91.10
2019-03-13T23:29:06.363Z,91.70
2019-03-13T23:31:47.973Z,92.00
2019-03-13T23:34:29.235Z,92.60
2019-03-13T23:37:11.082Z,93.10
2019-03-13T23:39:52.474Z,93.70
2019-03-13T23:42:34.046Z,93.30
2019-03-13T23:45:15.819Z,93.20
2019-03-13T23:47:57.716Z,92.90
2019-03-13T23:50:39.269Z,93.00
2019-03-13T23:53:20.731Z,92.40
2019-03-13T23:56:02.145Z,92.90
2019-03-13T23:58:43.505Z,92.40
